Port San Antonio, Texas
Current Conditions -  °F | °C
As of 9:58 AM on Friday 24 Oct 2014 (Local Time) from KSKF Reporting Station
Clear Clear  
Wind Chill: 72°   Ceiling: Unl
Heat Index: 72°   Visibility: 10mi
Dew Point: 60°   Wind: 2mph
Humidity: 67%   Direction: NA
Pressure: 30.17"   Gusts: NA
Location:  29.38°N, 98.58°W
Report Text: KSKF 241458Z AUTO VRB02KT 10SM CLR 22/16 A3017 RMK AO2 SLP211 T02220157 52019 $
Loading
Personal Weather Stations






























Interactive Weather Map
Tropical Storm Tracking
New forecast layout! Learn more

10-Day Weather Forecast

Advertisements
Track Severe Weather on mobile